Time;durP1;ratioP1;P1;durP2;ratioP2;P2;SDS_P1;SDS_P2;PMS_P1;PMS_P2;Temp;Humidity;BMP_temperature;BMP_pressure;BME280_temperature;BME280_humidity;BME280_pressure;Samples;Min_cycle;Max_cycle;Signal;HPM_P1;HPM_P2
2021/05/19 11:10:49;;;;;;;1.23;0.50;;;16.60;99.90;;;;;;4958430;28;20212;-72
2021/05/19 11:13:16;;;;;;;1.33;0.40;;;16.70;99.90;;;;;;4965810;28;20211;-72
2021/05/19 11:16:07;;;;;;;1.00;0.50;;;16.90;99.90;;;;;;4964930;28;20231;-72
2021/05/19 11:21:23;;;;;;;1.23;0.40;;;16.90;99.90;;;;;;4957856;28;20401;-73
2021/05/19 11:24:08;;;;;;;1.03;0.53;;;16.80;99.90;;;;;;4965857;28;20203;-73
2021/05/19 11:26:43;;;;;;;2.67;0.50;;;16.60;99.90;;;;;;4964735;28;20278;-73
2021/05/19 11:29:11;;;;;;;0.73;0.30;;;16.70;99.90;;;;;;4967476;28;20203;-73
2021/05/19 11:31:41;;;;;;;2.37;0.37;;;16.70;99.90;;;;;;4965436;28;20290;-73
2021/05/19 11:34:08;;;;;;;1.73;0.40;;;16.60;99.90;;;;;;4963678;28;20203;-73
2021/05/19 11:36:39;;;;;;;3.13;0.50;;;16.90;99.90;;;;;;4957068;28;20227;-72
2021/05/19 11:39:23;;;;;;;0.40;0.30;;;16.90;99.90;;;;;;4970841;28;20211;-72
2021/05/19 11:41:51;;;;;;;0.40;0.30;;;17.20;99.90;;;;;;4961575;28;20211;-71
2021/05/19 11:44:35;;;;;;;0.77;0.30;;;17.30;99.90;;;;;;4961944;28;20214;-73
2021/05/19 11:47:03;;;;;;;1.13;0.47;;;17.70;99.90;;;;;;4966178;28;20242;-72
2021/05/19 11:49:29;;;;;;;0.50;0.20;;;18.00;99.90;;;;;;4964923;28;20215;-72
2021/05/19 11:51:55;;;;;;;0.60;0.40;;;18.00;99.90;;;;;;4963740;28;20211;-72
2021/05/19 11:54:22;;;;;;;0.63;0.30;;;18.20;99.90;;;;;;4965816;28;20221;-72
2021/05/19 11:56:51;;;;;;;1.03;0.50;;;18.60;99.90;;;;;;4965586;28;20718;-70
2021/05/19 11:59:21;;;;;;;0.70;0.40;;;18.80;99.90;;;;;;4964576;28;20214;-71
2021/05/19 12:02:03;;;;;;;0.60;0.40;;;18.50;99.90;;;;;;4967498;28;20244;-72
2021/05/19 12:04:31;;;;;;;0.40;0.20;;;18.60;99.90;;;;;;4968500;28;20815;-73
2021/05/19 12:07:02;;;;;;;1.07;0.50;;;18.50;99.90;;;;;;4966036;28;20242;-73
2021/05/19 12:09:31;;;;;;;1.73;0.30;;;18.60;99.90;;;;;;4968068;28;20670;-73
2021/05/19 12:12:07;;;;;;;3.70;0.40;;;18.80;99.90;;;;;;4966328;28;20220;-72
2021/05/19 12:14:34;;;;;;;0.40;0.30;;;18.90;99.90;;;;;;4959285;28;20574;-72
2021/05/19 12:17:03;;;;;;;1.27;0.50;;;19.10;99.90;;;;;;4961256;28;20226;-72
2021/05/19 12:19:35;;;;;;;1.23;0.30;;;19.00;99.90;;;;;;4964986;28;20215;-73
2021/05/19 12:22:11;;;;;;;0.50;0.33;;;18.90;99.90;;;;;;4963890;28;20240;-73
2021/05/19 12:24:38;;;;;;;0.70;0.40;;;18.80;99.90;;;;;;4964640;28;20207;-72
2021/05/19 12:27:07;;;;;;;1.50;0.30;;;19.00;99.90;;;;;;4970412;28;20293;-72
2021/05/19 12:29:40;;;;;;;1.60;0.30;;;19.10;99.80;;;;;;4966888;28;20342;-72
2021/05/19 12:32:12;;;;;;;0.73;0.30;;;19.10;99.90;;;;;;4954886;28;20214;-72
2021/05/19 12:34:38;;;;;;;3.07;0.47;;;19.00;99.30;;;;;;4955747;28;20212;-73
2021/05/19 12:37:05;;;;;;;0.83;0.47;;;18.90;99.00;;;;;;4976907;28;20237;-72
2021/05/19 12:39:32;;;;;;;0.60;0.40;;;18.90;99.90;;;;;;4977728;28;20298;-73
2021/05/19 12:41:59;;;;;;;1.33;0.50;;;18.80;99.90;;;;;;4977188;28;20226;-72
2021/05/19 12:44:29;;;;;;;4.57;0.70;;;19.00;99.90;;;;;;4963793;28;20667;-72
2021/05/19 12:47:00;;;;;;;1.02;0.40;;;19.30;99.90;;;;;;4957973;29;20236;-73
2021/05/19 12:49:27;;;;;;;1.42;0.30;;;19.30;99.20;;;;;;4958335;29;20240;-72
2021/05/19 12:51:56;;;;;;;2.53;0.47;;;19.10;99.90;;;;;;4958230;29;20218;-72
2021/05/19 12:54:28;;;;;;;2.05;0.50;;;19.10;99.60;;;;;;4958153;29;20279;-72
2021/05/19 12:57:06;;;;;;;2.20;0.80;;;19.10;99.90;;;;;;4964536;28;20745;-72
2021/05/19 13:00:02;;;;;;;1.37;0.40;;;19.10;99.80;;;;;;4977323;28;20210;-72
2021/05/19 13:02:30;;;;;;;1.87;0.50;;;18.90;99.90;;;;;;4960412;28;20207;-72
2021/05/19 13:04:58;;;;;;;1.33;0.60;;;19.00;99.90;;;;;;4976675;28;20211;-72
2021/05/19 13:07:25;;;;;;;0.90;0.40;;;19.10;99.40;;;;;;4965861;28;20254;-72
2021/05/19 13:10:12;;;;;;;1.27;1.00;;;19.30;99.60;;;;;;4957274;28;20212;-72
2021/05/19 13:12:54;;;;;;;1.30;0.60;;;19.30;98.60;;;;;;4957228;28;20211;-72
2021/05/19 13:15:34;;;;;;;1.92;0.60;;;18.80;98.90;;;;;;4957259;29;20564;-72
2021/05/19 13:18:04;;;;;;;1.77;0.70;;;18.70;99.80;;;;;;4956823;29;20677;-72
2021/05/19 13:20:32;;;;;;;1.57;1.07;;;18.60;99.90;;;;;;4957673;29;20279;-72
2021/05/19 13:23:03;;;;;;;1.83;0.60;;;18.70;99.90;;;;;;4957370;29;20219;-72
2021/05/19 13:25:30;;;;;;;1.80;0.80;;;18.60;99.90;;;;;;4957365;29;20279;-72
2021/05/19 13:27:57;;;;;;;1.57;0.90;;;18.70;99.50;;;;;;4956690;29;20504;-72
2021/05/19 13:30:26;;;;;;;1.57;0.90;;;18.60;99.90;;;;;;4957466;29;20207;-72
2021/05/19 13:33:07;;;;;;;0.80;0.60;;;18.70;99.90;;;;;;4956090;29;20335;-72
2021/05/19 13:38:19;;;;;;;1.43;0.90;;;18.90;99.90;;;;;;4957384;29;20262;-72
2021/05/19 13:40:47;;;;;;;3.03;0.90;;;18.90;99.90;;;;;;4957468;29;20618;-72
2021/05/19 13:43:13;;;;;;;1.40;0.93;;;18.80;99.90;;;;;;4957490;29;20219;-72
2021/05/19 13:45:39;;;;;;;1.77;1.00;;;18.70;99.90;;;;;;4957100;29;20235;-72
2021/05/19 13:48:07;;;;;;;2.20;1.27;;;18.90;99.90;;;;;;4956322;28;20215;-72
2021/05/19 13:50:34;;;;;;;2.10;0.80;;;19.00;99.90;;;;;;4957032;29;20215;-72
2021/05/19 13:53:00;;;;;;;2.63;0.90;;;19.10;99.90;;;;;;4956931;29;20216;-72
2021/05/19 13:55:27;;;;;;;1.43;0.57;;;19.10;99.90;;;;;;4956956;29;20568;-72
2021/05/19 13:57:53;;;;;;;2.37;0.60;;;18.90;99.90;;;;;;4956288;29;20586;-72
2021/05/19 14:00:20;;;;;;;1.73;1.03;;;18.60;99.90;;;;;;4955887;29;20225;-72
2021/05/19 14:02:48;;;;;;;1.00;0.63;;;18.20;99.90;;;;;;4956970;29;20208;-72
2021/05/19 14:05:22;;;;;;;2.40;0.80;;;18.00;99.90;;;;;;4957044;29;20236;-73
2021/05/19 14:07:49;;;;;;;0.70;0.47;;;17.80;99.90;;;;;;4965303;28;20230;-72
2021/05/19 14:10:15;;;;;;;1.63;0.70;;;18.00;99.90;;;;;;4975700;28;20219;-72
2021/05/19 14:12:43;;;;;;;1.53;0.70;;;18.20;99.90;;;;;;4963976;28;20729;-72
2021/05/19 14:15:14;;;;;;;3.63;0.60;;;18.20;99.90;;;;;;4956479;29;20208;-72
2021/05/19 14:17:49;;;;;;;1.87;0.80;;;18.40;99.90;;;;;;4967874;28;20298;-72
2021/05/19 14:28:40;;;;;;;0.50;0.30;;;18.10;99.90;;;;;;4931212;29;20208;-72
2021/05/19 14:31:06;;;;;;;1.57;0.50;;;17.70;99.90;;;;;;4955989;29;20208;-72
2021/05/19 14:33:32;;;;;;;0.80;0.40;;;17.50;99.90;;;;;;4955958;29;20239;-72
2021/05/19 15:00:34;;;;;;;0.77;0.60;;;17.70;99.90;;;;;;4955391;28;20331;-72
2021/05/19 15:03:01;;;;;;;0.97;0.60;;;17.60;99.90;;;;;;4954344;29;20208;-72
2021/05/19 15:05:27;;;;;;;1.83;0.60;;;17.50;99.90;;;;;;4955515;28;20793;-72
2021/05/19 15:07:54;;;;;;;0.53;0.40;;;17.40;99.90;;;;;;4955514;29;20282;-72
2021/05/19 15:10:21;;;;;;;2.50;0.63;;;17.30;99.90;;;;;;4955491;29;20230;-72
2021/05/19 15:12:47;;;;;;;1.20;0.60;;;17.10;99.90;;;;;;4955869;29;20287;-72
2021/05/19 15:15:14;;;;;;;1.50;0.80;;;17.00;99.90;;;;;;4955780;29;20286;-73
2021/05/19 15:17:41;;;;;;;1.63;0.47;;;17.10;99.90;;;;;;4955530;29;20267;-73
2021/05/19 15:20:09;;;;;;;0.77;0.50;;;17.20;99.90;;;;;;4955582;29;20212;-72
2021/05/19 15:22:35;;;;;;;0.43;0.27;;;17.10;99.90;;;;;;4955248;28;20663;-72
2021/05/19 15:25:03;;;;;;;0.70;0.30;;;17.30;99.90;;;;;;4955484;28;20572;-72
2021/05/19 15:27:29;;;;;;;0.80;0.40;;;17.40;99.90;;;;;;4955278;29;20239;-72
2021/05/19 15:29:55;;;;;;;0.53;0.30;;;17.40;99.90;;;;;;4962988;28;20732;-72
2021/05/19 15:32:22;;;;;;;0.93;0.43;;;17.40;99.90;;;;;;4964692;28;20199;-72
2021/05/19 15:34:51;;;;;;;0.70;0.57;;;17.60;99.90;;;;;;4960994;28;20278;-72
2021/05/19 15:37:17;;;;;;;0.90;0.60;;;17.90;99.90;;;;;;4964758;28;20309;-72
2021/05/19 15:39:44;;;;;;;2.57;0.60;;;18.30;99.90;;;;;;4965253;28;20211;-72
2021/05/19 15:42:11;;;;;;;2.47;0.80;;;18.40;99.90;;;;;;4967730;28;20216;-72
2021/05/19 15:44:37;;;;;;;0.70;0.63;;;18.70;99.90;;;;;;4967571;28;20233;-72
2021/05/19 15:47:04;;;;;;;2.00;0.73;;;18.90;99.90;;;;;;4961411;28;20273;-72
2021/05/19 15:49:30;;;;;;;2.10;1.13;;;18.90;99.90;;;;;;4962674;28;20262;-72
2021/05/19 15:51:56;;;;;;;1.17;0.97;;;18.70;99.90;;;;;;4973787;28;20211;-72
2021/05/19 15:54:23;;;;;;;1.20;1.00;;;18.60;99.90;;;;;;4972053;28;20207;-72
2021/05/19 15:56:49;;;;;;;0.93;0.80;;;18.50;99.90;;;;;;4963253;28;20223;-72
2021/05/19 15:59:16;;;;;;;0.90;0.73;;;18.40;99.90;;;;;;4961389;28;20511;-72
2021/05/19 16:01:42;;;;;;;3.20;1.10;;;18.30;99.90;;;;;;4969527;28;20270;-72
2021/05/19 16:04:11;;;;;;;1.50;0.87;;;18.20;99.90;;;;;;4972113;28;20306;-71
2021/05/19 16:06:39;;;;;;;2.17;0.77;;;17.90;99.90;;;;;;4958997;28;20274;-71
2021/05/19 16:09:06;;;;;;;1.60;0.70;;;17.70;99.90;;;;;;4961934;28;20220;-72
2021/05/19 16:11:32;;;;;;;1.97;0.80;;;17.30;99.90;;;;;;4962280;28;20203;-72
2021/05/19 16:13:58;;;;;;;1.80;0.80;;;16.90;99.90;;;;;;4962000;28;20212;-72
2021/05/19 16:16:26;;;;;;;1.50;0.80;;;16.70;99.90;;;;;;4963820;28;20250;-72
2021/05/19 16:18:52;;;;;;;1.00;0.70;;;16.70;99.90;;;;;;4963986;28;20200;-72
2021/05/19 16:21:20;;;;;;;1.07;0.67;;;16.80;99.90;;;;;;4962403;28;20689;-72
2021/05/19 16:23:46;;;;;;;1.03;0.80;;;16.70;99.90;;;;;;4963872;28;20659;-71
2021/05/19 16:26:12;;;;;;;1.53;0.90;;;16.60;99.90;;;;;;4963582;28;20587;-72
2021/05/19 16:28:39;;;;;;;1.57;0.90;;;16.60;99.90;;;;;;4958383;28;20655;-72
2021/05/19 16:31:08;;;;;;;2.17;1.00;;;16.70;99.90;;;;;;4973256;28;20328;-72
2021/05/19 16:34:17;;;;;;;0.93;0.83;;;16.80;99.90;;;;;;4972678;28;20227;-73
2021/05/19 16:36:46;;;;;;;1.30;1.20;;;16.60;99.90;;;;;;4973654;28;20284;-72
2021/05/19 16:39:15;;;;;;;2.87;1.20;;;16.60;99.90;;;;;;4973578;28;20662;-73
2021/05/19 16:41:42;;;;;;;1.90;1.20;;;16.40;99.90;;;;;;4973451;28;20207;-72
2021/05/19 16:44:09;;;;;;;2.10;1.50;;;16.30;99.90;;;;;;4973848;28;20234;-72
2021/05/19 16:46:36;;;;;;;1.67;1.13;;;16.30;99.90;;;;;;4973604;28;20282;-73
2021/05/19 16:49:08;;;;;;;2.10;1.50;;;16.00;99.90;;;;;;4973796;28;20214;-72
2021/05/19 16:51:45;;;;;;;1.27;1.10;;;16.20;99.90;;;;;;4973687;28;20673;-72
2021/05/19 16:54:11;;;;;;;1.93;1.00;;;16.20;99.90;;;;;;4973584;28;20684;-72
2021/05/19 16:56:39;;;;;;;1.50;1.07;;;16.20;99.90;;;;;;4973755;28;20235;-72
2021/05/19 16:59:06;;;;;;;1.30;1.10;;;16.30;99.90;;;;;;4973725;28;20242;-72
2021/05/19 17:01:37;;;;;;;1.33;1.03;;;16.40;99.90;;;;;;4973485;28;20214;-71
2021/05/19 17:06:49;;;;;;;1.50;1.00;;;16.30;99.90;;;;;;4974114;28;20234;-72
2021/05/19 17:09:15;;;;;;;2.97;1.13;;;16.20;99.90;;;;;;4973580;28;20681;-72
2021/05/19 17:11:41;;;;;;;1.10;1.00;;;16.00;99.90;;;;;;4973192;28;20207;-72
2021/05/19 17:14:09;;;;;;;1.40;1.30;;;16.00;99.90;;;;;;4973630;28;20214;-72
2021/05/19 17:16:35;;;;;;;1.90;1.50;;;16.00;99.90;;;;;;4973611;28;20235;-72
2021/05/19 17:19:03;;;;;;;1.40;1.30;;;16.10;99.90;;;;;;4973408;28;20210;-72
2021/05/19 17:21:30;;;;;;;7.23;1.30;;;16.20;99.90;;;;;;4973805;28;20215;-72
2021/05/19 17:23:57;;;;;;;1.13;1.03;;;16.30;99.90;;;;;;4976892;28;20211;-72
2021/05/19 17:26:24;;;;;;;1.50;1.10;;;16.30;99.90;;;;;;4976670;28;20717;-72
2021/05/19 17:28:50;;;;;;;1.40;1.30;;;16.30;99.90;;;;;;4976969;28;20518;-72
2021/05/19 17:31:17;;;;;;;2.03;1.43;;;16.30;99.90;;;;;;4976854;28;20208;-72
2021/05/19 17:33:43;;;;;;;2.30;1.40;;;16.40;99.90;;;;;;4976758;28;20207;-72
2021/05/19 17:36:12;;;;;;;2.03;1.20;;;16.00;99.90;;;;;;4976726;28;20583;-73
2021/05/19 17:38:38;;;;;;;3.90;2.07;;;16.00;99.90;;;;;;4969889;28;20204;-72
2021/05/19 17:41:06;;;;;;;2.23;1.97;;;15.90;99.90;;;;;;4960440;28;20215;-72
2021/05/19 17:43:32;;;;;;;1.30;0.90;;;15.90;99.90;;;;;;4960045;28;20737;-73
2021/05/19 17:45:58;;;;;;;1.00;0.90;;;15.80;99.90;;;;;;4969430;28;20219;-72
2021/05/19 17:48:24;;;;;;;4.33;1.03;;;15.80;99.90;;;;;;4967855;28;20227;-72
2021/05/19 17:50:50;;;;;;;1.27;1.00;;;15.80;99.90;;;;;;4964550;28;20215;-71
2021/05/19 17:53:17;;;;;;;2.07;1.00;;;15.70;99.90;;;;;;4966567;28;20270;-72
2021/05/19 17:55:44;;;;;;;1.37;0.90;;;15.70;99.90;;;;;;4967474;28;20234;-72
2021/05/19 17:58:11;;;;;;;2.17;0.80;;;15.80;99.90;;;;;;4966834;28;20207;-72
2021/05/19 18:00:37;;;;;;;1.10;0.87;;;15.80;99.90;;;;;;4957494;28;20717;-72
2021/05/19 18:03:07;;;;;;;1.67;0.83;;;15.80;99.90;;;;;;4965290;28;20234;-72
2021/05/19 18:05:34;;;;;;;2.30;0.90;;;15.80;99.90;;;;;;4964264;28;20228;-72
2021/05/19 18:08:01;;;;;;;1.13;1.00;;;15.80;99.90;;;;;;4967110;28;20326;-72
2021/05/19 18:10:29;;;;;;;3.13;1.67;;;15.80;99.90;;;;;;4959849;28;20582;-72
2021/05/19 18:12:56;;;;;;;2.20;0.77;;;15.80;99.90;;;;;;4962653;28;20262;-72
2021/05/19 18:15:23;;;;;;;1.10;0.90;;;15.80;99.90;;;;;;4969900;28;20238;-72
2021/05/19 18:17:52;;;;;;;0.57;0.50;;;15.70;99.90;;;;;;4968506;28;20214;-72
2021/05/19 18:20:19;;;;;;;1.33;0.70;;;15.80;99.90;;;;;;4967197;28;20219;-72
2021/05/19 18:22:45;;;;;;;1.53;0.67;;;16.00;99.90;;;;;;4968396;28;20210;-72
2021/05/19 18:25:11;;;;;;;0.80;0.60;;;15.90;99.90;;;;;;4961658;28;20207;-72
2021/05/19 18:27:39;;;;;;;2.13;1.67;;;15.90;99.90;;;;;;4964989;28;20593;-71
2021/05/19 18:30:10;;;;;;;0.83;0.60;;;15.90;99.90;;;;;;4964474;28;20241;-73
2021/05/19 18:32:40;;;;;;;4.43;1.33;;;15.90;99.90;;;;;;4961044;28;20694;-72
2021/05/19 18:35:15;;;;;;;0.93;0.47;;;15.70;99.90;;;;;;4959025;28;20266;-66
2021/05/19 18:37:42;;;;;;;2.60;1.30;;;15.60;99.90;;;;;;4964441;28;20203;-71
2021/05/19 18:40:09;;;;;;;0.70;0.50;;;15.60;99.90;;;;;;4970051;28;20203;-69
2021/05/19 18:42:36;;;;;;;0.93;0.57;;;15.50;99.90;;;;;;4968351;28;20212;-68
2021/05/19 18:45:04;;;;;;;1.10;0.70;;;15.30;99.90;;;;;;4962023;28;20222;-71
2021/05/19 18:47:30;;;;;;;1.53;0.60;;;15.20;99.90;;;;;;4959117;28;20247;-72
2021/05/19 18:49:57;;;;;;;2.10;0.60;;;15.20;99.90;;;;;;4962915;28;20209;-72
2021/05/19 18:52:24;;;;;;;2.87;0.97;;;15.10;99.90;;;;;;4961190;28;20207;-72
2021/05/19 18:54:50;;;;;;;1.80;0.70;;;15.00;99.90;;;;;;4960330;28;20223;-72
2021/05/19 18:57:16;;;;;;;3.57;0.60;;;15.00;99.90;;;;;;4962050;28;20238;-72
2021/05/19 18:59:43;;;;;;;1.13;0.70;;;14.90;99.90;;;;;;4965707;28;20211;-72
2021/05/19 19:02:10;;;;;;;0.60;0.47;;;14.90;99.90;;;;;;4962043;28;20237;-73
2021/05/19 19:04:38;;;;;;;1.37;0.57;;;14.90;99.90;;;;;;4964028;28;20218;-73
2021/05/19 19:07:06;;;;;;;2.70;0.70;;;14.80;99.90;;;;;;4965165;28;20239;-73
2021/05/19 19:09:32;;;;;;;1.70;0.60;;;14.80;99.90;;;;;;4971081;28;20310;-73
2021/05/19 19:11:59;;;;;;;2.23;0.50;;;14.90;99.90;;;;;;4969514;28;20611;-73
2021/05/19 19:14:26;;;;;;;3.33;0.60;;;14.90;99.90;;;;;;4973059;28;20242;-73
2021/05/19 19:16:53;;;;;;;3.10;0.70;;;14.70;99.90;;;;;;4960935;28;20650;-73
2021/05/19 19:19:19;;;;;;;1.03;0.60;;;14.60;99.90;;;;;;4962586;28;20211;-73
2021/05/19 19:21:45;;;;;;;0.90;0.50;;;14.50;99.90;;;;;;4959471;28;20222;-73
2021/05/19 19:24:13;;;;;;;4.40;0.97;;;14.40;99.90;;;;;;4960027;28;20722;-73
2021/05/19 19:26:41;;;;;;;3.47;0.77;;;14.30;99.90;;;;;;4965063;28;20235;-73
2021/05/19 19:29:08;;;;;;;2.27;0.60;;;14.30;99.90;;;;;;4961089;28;20290;-72
2021/05/19 19:31:34;;;;;;;0.70;0.50;;;14.30;99.90;;;;;;4965431;28;20701;-73
2021/05/19 19:34:00;;;;;;;1.73;0.70;;;14.30;99.90;;;;;;4963605;28;20208;-73
2021/05/19 19:36:28;;;;;;;2.73;1.53;;;14.30;99.90;;;;;;4971833;28;20231;-73
2021/05/19 19:38:54;;;;;;;2.10;1.30;;;14.30;99.90;;;;;;4964459;28;20223;-73
2021/05/19 19:41:22;;;;;;;2.30;0.70;;;14.50;99.90;;;;;;4965831;28;20290;-73
2021/05/19 19:43:48;;;;;;;1.40;0.70;;;14.50;99.90;;;;;;4968576;28;20261;-73
2021/05/19 19:46:14;;;;;;;2.67;0.57;;;14.40;99.90;;;;;;4967537;28;20237;-73
2021/05/19 19:48:44;;;;;;;0.73;0.63;;;14.40;99.90;;;;;;4968051;28;20203;-73
2021/05/19 19:51:14;;;;;;;0.60;0.40;;;14.30;99.90;;;;;;4963201;28;20216;-73
2021/05/19 19:53:40;;;;;;;1.90;0.77;;;14.20;99.90;;;;;;4967268;28;20222;-73
2021/05/19 19:56:06;;;;;;;0.97;0.50;;;14.10;99.90;;;;;;4967252;28;20230;-73
2021/05/19 19:58:34;;;;;;;1.17;0.60;;;14.10;99.90;;;;;;4971897;28;20234;-73
2021/05/19 20:01:04;;;;;;;2.40;0.80;;;14.10;99.90;;;;;;4961464;28;20216;-72
2021/05/19 20:03:34;;;;;;;1.13;0.67;;;14.10;99.90;;;;;;4964037;28;20262;-72
2021/05/19 20:06:00;;;;;;;2.57;0.80;;;14.00;99.90;;;;;;4966047;28;20229;-72
2021/05/19 20:08:27;;;;;;;1.50;0.63;;;13.90;99.90;;;;;;4961930;28;20228;-73
2021/05/19 20:10:54;;;;;;;2.63;0.77;;;13.90;99.90;;;;;;4957433;28;20212;-73
2021/05/19 20:13:21;;;;;;;1.30;0.93;;;13.80;99.90;;;;;;4965922;28;20267;-73
2021/05/19 20:15:48;;;;;;;1.50;0.70;;;13.80;99.90;;;;;;4964792;28;20274;-73
2021/05/19 20:18:14;;;;;;;4.00;0.90;;;13.70;99.90;;;;;;4965377;28;20222;-73
2021/05/19 20:20:41;;;;;;;1.20;0.60;;;13.60;99.90;;;;;;4962587;28;20215;-74
2021/05/19 20:23:07;;;;;;;0.83;0.70;;;13.50;99.90;;;;;;4966916;28;20210;-73
2021/05/19 20:25:33;;;;;;;2.00;0.70;;;13.40;99.90;;;;;;4966416;28;20764;-73
2021/05/19 20:27:59;;;;;;;1.10;0.80;;;13.20;99.90;;;;;;4961608;28;20240;-73
2021/05/19 20:30:26;;;;;;;1.33;0.77;;;13.20;99.90;;;;;;4960037;28;20216;-73
2021/05/19 20:32:53;;;;;;;1.13;0.80;;;13.10;99.90;;;;;;4964874;28;20455;-73
2021/05/19 20:35:19;;;;;;;1.30;1.00;;;13.00;99.90;;;;;;4968237;28;20237;-74
2021/05/19 20:37:45;;;;;;;1.67;0.70;;;12.90;99.90;;;;;;4964068;28;20337;-73
2021/05/19 20:40:14;;;;;;;1.27;1.00;;;12.90;99.90;;;;;;4964102;28;20267;-73
2021/05/19 20:42:40;;;;;;;1.60;1.00;;;12.80;99.90;;;;;;4970784;28;20239;-73
2021/05/19 20:45:07;;;;;;;1.80;0.80;;;12.70;99.90;;;;;;4961132;28;20262;-73
2021/05/19 20:47:33;;;;;;;2.00;0.90;;;12.70;99.90;;;;;;4965484;28;20765;-73
2021/05/19 20:50:00;;;;;;;1.00;0.80;;;12.60;99.90;;;;;;4964438;28;20207;-73
2021/05/19 20:52:27;;;;;;;1.50;0.90;;;12.50;99.90;;;;;;4968319;28;20207;-73
2021/05/19 20:54:53;;;;;;;1.23;0.90;;;12.50;99.90;;;;;;4959723;28;20209;-73
2021/05/19 20:57:19;;;;;;;1.60;0.97;;;12.40;99.90;;;;;;4974516;28;20234;-73
